Time;durP1;ratioP1;P1;durP2;ratioP2;P2;SDS_P1;SDS_P2;PMS_P1;PMS_P2;Temp;Humidity;BMP_temperature;BMP_pressure;BME280_temperature;BME280_humidity;BME280_pressure;Samples;Min_cycle;Max_cycle;Signal;HPM_P1;HPM_P2
2022/11/20 00:01:17;;;;;;;37.20;19.00;;;;;;;;;;5065110;28;20043;-65
2022/11/20 00:04:01;;;;;;;36.33;18.63;;;;;;;;;;5066709;28;20032;-65
2022/11/20 00:06:45;;;;;;;37.70;19.03;;;;;;;;;;5061746;28;20403;-65
2022/11/20 00:09:29;;;;;;;34.07;17.70;;;;;;;;;;5057935;28;20021;-65
2022/11/20 00:12:13;;;;;;;36.40;17.97;;;;;;;;;;5058905;28;20035;-65
2022/11/20 00:14:57;;;;;;;36.30;17.77;;;;;;;;;;5058959;28;20024;-65
2022/11/20 00:17:41;;;;;;;32.70;17.07;;;;;;;;;;5061503;28;20046;-65
2022/11/20 00:20:25;;;;;;;31.17;16.97;;;;;;;;;;5053516;28;20549;-65
2022/11/20 00:23:09;;;;;;;34.07;17.33;;;;;;;;;;5047336;28;21242;-65
2022/11/20 00:25:52;;;;;;;36.20;16.90;;;;;;;;;;5049594;28;20029;-65
2022/11/20 00:28:36;;;;;;;30.97;17.07;;;;;;;;;;5058180;28;20775;-65
2022/11/20 00:31:20;;;;;;;35.53;16.90;;;;;;;;;;5053313;28;20055;-65
2022/11/20 00:34:04;;;;;;;33.90;16.43;;;;;;;;;;5055344;28;20675;-65
2022/11/20 00:36:48;;;;;;;32.13;17.43;;;;;;;;;;5049219;28;20040;-65
2022/11/20 00:39:31;;;;;;;34.67;17.20;;;;;;;;;;5047940;28;20727;-65
2022/11/20 00:42:15;;;;;;;32.73;16.57;;;;;;;;;;5058615;28;20025;-65
2022/11/20 00:44:59;;;;;;;34.87;16.93;;;;;;;;;;5062604;28;20021;-65
2022/11/20 00:47:43;;;;;;;33.67;16.47;;;;;;;;;;5063311;28;20028;-65
2022/11/20 00:50:26;;;;;;;36.00;17.30;;;;;;;;;;5063916;28;20025;-65
2022/11/20 00:53:10;;;;;;;36.03;17.50;;;;;;;;;;5058085;28;20028;-65
2022/11/20 00:55:54;;;;;;;29.80;16.43;;;;;;;;;;5058372;28;20020;-65
2022/11/20 00:58:38;;;;;;;30.63;15.90;;;;;;;;;;5064230;28;20676;-65
2022/11/20 01:01:23;;;;;;;36.87;17.90;;;;;;;;;;5062256;28;20032;-65
2022/11/20 01:04:07;;;;;;;34.23;17.00;;;;;;;;;;5063255;28;20032;-65
2022/11/20 01:06:51;;;;;;;40.20;18.10;;;;;;;;;;5062747;28;20040;-65
2022/11/20 01:09:35;;;;;;;34.27;17.07;;;;;;;;;;5062502;28;20013;-65
2022/11/20 01:12:19;;;;;;;32.27;16.20;;;;;;;;;;5062270;28;20486;-65
2022/11/20 01:15:02;;;;;;;32.43;16.33;;;;;;;;;;5064930;28;20028;-65
2022/11/20 01:17:46;;;;;;;33.00;17.50;;;;;;;;;;5061783;28;20416;-65
2022/11/20 01:20:30;;;;;;;32.10;17.00;;;;;;;;;;5066268;28;20033;-65
2022/11/20 01:23:14;;;;;;;31.73;16.80;;;;;;;;;;5061403;28;20024;-65
2022/11/20 01:25:58;;;;;;;31.93;17.03;;;;;;;;;;5066278;28;20024;-65
2022/11/20 01:28:42;;;;;;;30.47;16.57;;;;;;;;;;5064597;28;20434;-65
2022/11/20 01:31:25;;;;;;;32.47;16.27;;;;;;;;;;5059788;28;20123;-65
2022/11/20 01:34:09;;;;;;;29.63;15.47;;;;;;;;;;5061642;28;20036;-65
2022/11/20 01:36:53;;;;;;;31.47;15.67;;;;;;;;;;5060545;28;20031;-65
2022/11/20 01:39:37;;;;;;;31.00;15.83;;;;;;;;;;5064032;28;20033;-66
2022/11/20 01:45:23;;;;;;;34.73;17.20;;;;;;;;;;5062430;28;20019;-65
2022/11/20 01:48:07;;;;;;;32.47;16.47;;;;;;;;;;5061513;28;20024;-65
2022/11/20 01:50:51;;;;;;;28.60;14.90;;;;;;;;;;5064135;28;20082;-65
2022/11/20 01:53:35;;;;;;;30.67;16.23;;;;;;;;;;5065811;28;20446;-65
2022/11/20 01:56:18;;;;;;;31.17;16.93;;;;;;;;;;5062171;28;20035;-65
2022/11/20 01:59:02;;;;;;;33.70;16.50;;;;;;;;;;5058751;28;21407;-65
2022/11/20 02:01:46;;;;;;;30.33;17.17;;;;;;;;;;5061371;28;20056;-62
2022/11/20 02:04:30;;;;;;;32.00;16.37;;;;;;;;;;5065322;28;20040;-63
2022/11/20 02:07:14;;;;;;;30.40;16.43;;;;;;;;;;5060608;28;20141;-63
2022/11/20 02:09:58;;;;;;;34.17;17.53;;;;;;;;;;5064235;28;20028;-63
2022/11/20 02:15:46;;;;;;;31.23;16.70;;;;;;;;;;5064636;28;20127;-63
2022/11/20 02:18:29;;;;;;;30.13;16.23;;;;;;;;;;5064367;28;20032;-63
2022/11/20 02:21:13;;;;;;;32.07;17.03;;;;;;;;;;5068331;28;20090;-63
2022/11/20 02:23:57;;;;;;;31.23;16.50;;;;;;;;;;5065721;28;20029;-63
2022/11/20 02:26:41;;;;;;;33.77;16.90;;;;;;;;;;5064008;28;20646;-63
2022/11/20 02:29:25;;;;;;;30.60;16.03;;;;;;;;;;5062358;28;20503;-63
2022/11/20 02:32:09;;;;;;;30.70;16.03;;;;;;;;;;5059096;28;20450;-64
2022/11/20 02:34:53;;;;;;;31.97;17.10;;;;;;;;;;5065725;28;20036;-62
2022/11/20 02:37:37;;;;;;;28.03;15.67;;;;;;;;;;5058575;28;20388;-63
2022/11/20 02:40:21;;;;;;;31.07;16.13;;;;;;;;;;5060812;28;20435;-63
2022/11/20 02:43:05;;;;;;;39.33;17.80;;;;;;;;;;5056208;28;20028;-62
2022/11/20 02:45:49;;;;;;;30.13;16.17;;;;;;;;;;5059775;28;20028;-63
2022/11/20 02:48:33;;;;;;;29.17;15.53;;;;;;;;;;5058732;28;20079;-62
2022/11/20 02:51:16;;;;;;;28.80;15.67;;;;;;;;;;5064010;28;20063;-62
2022/11/20 02:54:00;;;;;;;31.70;15.30;;;;;;;;;;5060122;28;20069;-62
2022/11/20 02:56:44;;;;;;;34.67;15.23;;;;;;;;;;5060105;28;20024;-62
2022/11/20 02:59:28;;;;;;;28.70;15.00;;;;;;;;;;5056717;28;20028;-62
2022/11/20 03:02:12;;;;;;;31.90;14.57;;;;;;;;;;5057477;28;20104;-62
2022/11/20 03:04:55;;;;;;;30.27;15.23;;;;;;;;;;5065343;28;20037;-62
2022/11/20 03:07:39;;;;;;;30.57;15.47;;;;;;;;;;5061581;28;20044;-63
2022/11/20 03:10:23;;;;;;;29.73;14.20;;;;;;;;;;5064757;28;20032;-62
2022/11/20 03:13:07;;;;;;;28.30;14.80;;;;;;;;;;5059227;28;20478;-63
2022/11/20 03:15:50;;;;;;;26.17;14.77;;;;;;;;;;5065843;28;20029;-62
2022/11/20 03:18:34;;;;;;;24.90;13.90;;;;;;;;;;5072705;28;20387;-62
2022/11/20 03:21:18;;;;;;;26.40;14.53;;;;;;;;;;5067183;28;20044;-64
2022/11/20 03:24:02;;;;;;;27.13;14.80;;;;;;;;;;5066591;28;20551;-64
2022/11/20 03:26:46;;;;;;;24.70;13.50;;;;;;;;;;5066222;28;20766;-65
2022/11/20 03:29:30;;;;;;;25.03;13.73;;;;;;;;;;5065471;28;20431;-65
2022/11/20 03:32:14;;;;;;;26.27;13.20;;;;;;;;;;5060799;28;20041;-64
2022/11/20 03:34:57;;;;;;;25.10;14.73;;;;;;;;;;5060981;28;20542;-64
2022/11/20 03:37:41;;;;;;;28.63;13.43;;;;;;;;;;5064536;28;20024;-65
2022/11/20 03:40:25;;;;;;;26.93;13.73;;;;;;;;;;5065935;28;20033;-64
2022/11/20 03:43:09;;;;;;;28.67;14.87;;;;;;;;;;5067964;28;20107;-64
2022/11/20 03:45:53;;;;;;;26.63;14.77;;;;;;;;;;5064919;28;20032;-64
2022/11/20 03:48:36;;;;;;;27.00;12.93;;;;;;;;;;5063823;28;20035;-64
2022/11/20 03:51:20;;;;;;;26.93;13.60;;;;;;;;;;5067483;28;20039;-64
2022/11/20 03:54:04;;;;;;;27.50;14.40;;;;;;;;;;5066166;28;20034;-62
2022/11/20 03:56:48;;;;;;;27.17;13.40;;;;;;;;;;5066641;28;20111;-62
2022/11/20 03:59:32;;;;;;;23.57;13.17;;;;;;;;;;5065193;28;20037;-62
2022/11/20 04:02:15;;;;;;;25.23;13.50;;;;;;;;;;5062774;28;20031;-62
2022/11/20 04:04:59;;;;;;;28.37;14.67;;;;;;;;;;5061644;28;20036;-62
2022/11/20 04:07:43;;;;;;;29.57;13.90;;;;;;;;;;5063414;28;20109;-62
2022/11/20 04:10:27;;;;;;;27.27;13.77;;;;;;;;;;5063839;28;20029;-62
2022/11/20 04:13:10;;;;;;;28.33;14.43;;;;;;;;;;5064563;28;20435;-62
2022/11/20 04:15:54;;;;;;;26.60;13.77;;;;;;;;;;5060076;28;20036;-63
2022/11/20 04:18:38;;;;;;;25.90;13.93;;;;;;;;;;5062537;28;20024;-62
2022/11/20 04:21:22;;;;;;;26.73;13.70;;;;;;;;;;5071290;28;20032;-63
2022/11/20 04:24:05;;;;;;;28.80;14.30;;;;;;;;;;5068918;28;20079;-64
2022/11/20 04:26:49;;;;;;;27.03;13.73;;;;;;;;;;5059941;28;20043;-63
2022/11/20 04:29:33;;;;;;;25.53;13.90;;;;;;;;;;5065148;28;20029;-63
2022/11/20 04:32:17;;;;;;;27.10;14.33;;;;;;;;;;5070293;28;20040;-62
2022/11/20 04:35:01;;;;;;;25.13;13.77;;;;;;;;;;5065849;28;20043;-62
2022/11/20 04:37:45;;;;;;;25.40;13.13;;;;;;;;;;5069445;28;20027;-62
2022/11/20 04:40:28;;;;;;;27.23;14.77;;;;;;;;;;5060577;28;20032;-62
2022/11/20 04:43:12;;;;;;;25.17;13.50;;;;;;;;;;5072148;28;20078;-63
2022/11/20 04:45:56;;;;;;;27.53;12.77;;;;;;;;;;5070006;28;20021;-62
2022/11/20 04:48:41;;;;;;;25.07;13.43;;;;;;;;;;5065167;28;20391;-62
2022/11/20 04:51:25;;;;;;;29.13;14.17;;;;;;;;;;5066602;28;20033;-62
2022/11/20 04:54:09;;;;;;;26.13;13.57;;;;;;;;;;5065099;28;20036;-62
2022/11/20 04:56:52;;;;;;;26.20;13.17;;;;;;;;;;5065934;28;20079;-63
2022/11/20 04:59:36;;;;;;;25.73;13.20;;;;;;;;;;5062764;28;20587;-62
2022/11/20 05:02:20;;;;;;;25.60;13.63;;;;;;;;;;5058446;28;20118;-62
2022/11/20 05:05:04;;;;;;;23.83;12.53;;;;;;;;;;5064143;28;20036;-62
2022/11/20 05:07:48;;;;;;;25.77;13.40;;;;;;;;;;5063334;28;20047;-62
2022/11/20 05:10:31;;;;;;;29.13;14.83;;;;;;;;;;5066304;28;20044;-62
2022/11/20 05:13:15;;;;;;;23.70;13.10;;;;;;;;;;5063625;28;20051;-62
2022/11/20 05:15:59;;;;;;;23.23;13.33;;;;;;;;;;5057108;28;20105;-63
2022/11/20 05:18:43;;;;;;;25.03;12.93;;;;;;;;;;5063342;28;20062;-63
2022/11/20 05:21:27;;;;;;;24.33;13.60;;;;;;;;;;5058250;28;20036;-63
2022/11/20 05:24:11;;;;;;;23.87;13.23;;;;;;;;;;5058334;28;20086;-63
2022/11/20 05:26:55;;;;;;;26.60;13.70;;;;;;;;;;5062068;28;20914;-63
2022/11/20 05:29:39;;;;;;;23.97;13.53;;;;;;;;;;5069943;28;20028;-63
2022/11/20 05:32:25;;;;;;;22.90;13.50;;;;;;;;;;5069203;28;20077;-63
2022/11/20 05:35:09;;;;;;;24.73;13.50;;;;;;;;;;5061505;28;20143;-64
2022/11/20 05:37:53;;;;;;;28.77;14.13;;;;;;;;;;5061370;28;20027;-63
2022/11/20 05:40:36;;;;;;;25.43;13.87;;;;;;;;;;5068036;28;20468;-63
2022/11/20 05:43:20;;;;;;;24.67;13.97;;;;;;;;;;5075758;28;20035;-62
2022/11/20 05:46:04;;;;;;;25.10;13.47;;;;;;;;;;5071226;28;20036;-63
2022/11/20 05:48:48;;;;;;;26.67;14.13;;;;;;;;;;5071355;28;20028;-62
2022/11/20 05:51:31;;;;;;;24.97;14.17;;;;;;;;;;5075281;28;20063;-62
2022/11/20 05:54:15;;;;;;;24.97;13.43;;;;;;;;;;5065888;28;20028;-62
2022/11/20 05:56:59;;;;;;;27.83;13.67;;;;;;;;;;5073406;28;20035;-63
2022/11/20 05:59:43;;;;;;;28.43;14.03;;;;;;;;;;5063099;28;20537;-62
2022/11/20 06:02:27;;;;;;;24.93;13.63;;;;;;;;;;5065279;28;20071;-63
2022/11/20 06:05:11;;;;;;;25.60;13.70;;;;;;;;;;5071442;28;20028;-63
2022/11/20 06:07:55;;;;;;;26.93;14.00;;;;;;;;;;5063023;28;20047;-63
2022/11/20 06:10:38;;;;;;;26.73;13.43;;;;;;;;;;5075226;28;20035;-63
2022/11/20 06:13:22;;;;;;;26.90;14.43;;;;;;;;;;5073587;28;20028;-63
2022/11/20 06:16:06;;;;;;;24.73;13.20;;;;;;;;;;5073538;28;20035;-62
2022/11/20 06:18:50;;;;;;;23.23;13.17;;;;;;;;;;5073158;28;20028;-62
2022/11/20 06:21:34;;;;;;;27.20;13.90;;;;;;;;;;5068209;28;20460;-62
2022/11/20 06:24:18;;;;;;;28.43;13.77;;;;;;;;;;5065302;28;20752;-62
2022/11/20 06:27:01;;;;;;;25.07;13.63;;;;;;;;;;5079538;28;20158;-63
2022/11/20 06:29:45;;;;;;;25.60;13.17;;;;;;;;;;5078492;28;20031;-62
2022/11/20 06:32:29;;;;;;;24.20;12.90;;;;;;;;;;5076723;28;20051;-63
2022/11/20 06:35:13;;;;;;;24.83;13.23;;;;;;;;;;5069950;28;20474;-62
2022/11/20 06:37:57;;;;;;;23.70;13.23;;;;;;;;;;5071674;28;20067;-62
2022/11/20 06:40:41;;;;;;;24.97;13.10;;;;;;;;;;5066138;28;20052;-63
2022/11/20 06:43:25;;;;;;;26.83;13.90;;;;;;;;;;5067639;28;20032;-62
2022/11/20 06:46:09;;;;;;;23.17;13.33;;;;;;;;;;5064845;28;20034;-63
2022/11/20 06:48:53;;;;;;;25.90;13.63;;;;;;;;;;5072072;28;20735;-62
2022/11/20 06:51:37;;;;;;;26.43;14.33;;;;;;;;;;5072981;28;20035;-62
2022/11/20 06:54:20;;;;;;;26.97;14.80;;;;;;;;;;5064048;28;20041;-62
2022/11/20 06:57:04;;;;;;;28.50;13.90;;;;;;;;;;5072363;28;20033;-63
2022/11/20 06:59:48;;;;;;;25.43;14.57;;;;;;;;;;5066037;28;20407;-63
2022/11/20 07:02:32;;;;;;;27.80;14.33;;;;;;;;;;5072047;28;20087;-63
2022/11/20 07:05:16;;;;;;;26.37;13.83;;;;;;;;;;5072117;28;20035;-62
2022/11/20 07:08:00;;;;;;;26.97;14.30;;;;;;;;;;5061577;28;20459;-62
2022/11/20 07:10:43;;;;;;;28.20;14.80;;;;;;;;;;5066538;28;20062;-62
2022/11/20 07:13:27;;;;;;;29.23;14.07;;;;;;;;;;5058713;28;20033;-62
2022/11/20 07:16:11;;;;;;;31.43;14.90;;;;;;;;;;5062820;28;20034;-62
2022/11/20 07:18:55;;;;;;;24.37;13.57;;;;;;;;;;5067629;28;20028;-62
2022/11/20 07:21:39;;;;;;;26.07;13.67;;;;;;;;;;5061643;28;20064;-62
2022/11/20 07:24:23;;;;;;;24.77;13.70;;;;;;;;;;5068685;28;20523;-62
2022/11/20 07:27:07;;;;;;;28.83;14.73;;;;;;;;;;5079666;28;20028;-63
2022/11/20 07:29:51;;;;;;;27.93;14.20;;;;;;;;;;5070772;28;20065;-63
2022/11/20 07:32:34;;;;;;;24.13;13.03;;;;;;;;;;5078632;28;20061;-63
2022/11/20 07:35:18;;;;;;;22.67;12.70;;;;;;;;;;5080170;28;20070;-62
2022/11/20 07:38:02;;;;;;;23.93;12.17;;;;;;;;;;5068897;28;20531;-62
2022/11/20 07:40:46;;;;;;;23.50;12.60;;;;;;;;;;5065369;28;20028;-62
2022/11/20 07:43:30;;;;;;;22.80;12.30;;;;;;;;;;5070323;28;20033;-62
2022/11/20 07:46:13;;;;;;;24.40;11.63;;;;;;;;;;5080191;28;20407;-63
2022/11/20 07:48:57;;;;;;;17.93;9.17;;;;;;;;;;5075700;28;20032;-63
2022/11/20 07:51:41;;;;;;;22.60;11.77;;;;;;;;;;5071003;28;20032;-62
2022/11/20 07:54:25;;;;;;;24.67;12.23;;;;;;;;;;5068486;28;20028;-62
2022/11/20 07:57:09;;;;;;;23.10;12.40;;;;;;;;;;5068252;28;20028;-63
2022/11/20 07:59:52;;;;;;;26.33;12.63;;;;;;;;;;5067847;28;20024;-62
2022/11/20 08:02:36;;;;;;;24.67;12.67;;;;;;;;;;5070822;28;20519;-62
2022/11/20 08:05:20;;;;;;;22.27;12.10;;;;;;;;;;5075826;28;20033;-62
2022/11/20 08:08:04;;;;;;;22.40;12.07;;;;;;;;;;5065487;28;20554;-63
2022/11/20 08:10:48;;;;;;;22.27;11.13;;;;;;;;;;5068334;28;20024;-62
2022/11/20 08:16:34;;;;;;;21.67;12.07;;;;;;;;;;5067414;28;20058;-63
2022/11/20 08:19:18;;;;;;;23.13;11.40;;;;;;;;;;5065496;28;20032;-63
2022/11/20 08:22:02;;;;;;;22.33;12.10;;;;;;;;;;5077147;28;20036;-62
2022/11/20 08:24:46;;;;;;;23.13;12.20;;;;;;;;;;5075735;28;20039;-63
2022/11/20 08:27:29;;;;;;;21.37;10.70;;;;;;;;;;5070918;28;20115;-62
2022/11/20 08:30:13;;;;;;;23.10;10.27;;;;;;;;;;5073229;28;20040;-62
2022/11/20 08:32:57;;;;;;;20.57;11.77;;;;;;;;;;5070611;28;20024;-62
2022/11/20 08:35:42;;;;;;;19.00;10.63;;;;;;;;;;5068294;28;20020;-63
2022/11/20 08:38:26;;;;;;;19.90;10.53;;;;;;;;;;5069464;28;20475;-63
2022/11/20 08:41:28;;;;;;;22.97;12.37;;;;;;;;;;5071870;28;20782;-63
2022/11/20 08:44:12;;;;;;;21.15;10.98;;;;;;;;;;5069378;28;20100;-63
2022/11/20 08:46:56;;;;;;;21.33;11.40;;;;;;;;;;5071969;28;20025;-63
2022/11/20 08:49:40;;;;;;;19.63;9.80;;;;;;;;;;5064062;28;20033;-62
2022/11/20 08:52:24;;;;;;;19.20;10.90;;;;;;;;;;5070604;28;20406;-63
2022/11/20 08:55:08;;;;;;;19.37;10.23;;;;;;;;;;5064680;28;20400;-62
2022/11/20 08:57:52;;;;;;;23.67;11.63;;;;;;;;;;5060712;28;20424;-62
2022/11/20 09:00:35;;;;;;;19.97;10.00;;;;;;;;;;5059854;28;20097;-62
2022/11/20 09:03:20;;;;;;;18.30;10.33;;;;;;;;;;5066007;28;20024;-62
2022/11/20 09:06:03;;;;;;;20.57;10.43;;;;;;;;;;5062116;28;20044;-62
2022/11/20 09:08:47;;;;;;;18.47;10.50;;;;;;;;;;5060565;28;20020;-62
2022/11/20 09:11:31;;;;;;;22.03;10.23;;;;;;;;;;5063663;28;20044;-62
2022/11/20 09:14:15;;;;;;;18.97;10.23;;;;;;;;;;5067549;28;20455;-62
2022/11/20 09:16:59;;;;;;;18.10;9.87;;;;;;;;;;5068540;28;20039;-62
2022/11/20 09:19:43;;;;;;;20.07;9.87;;;;;;;;;;5069821;28;20028;-62
2022/11/20 09:22:27;;;;;;;17.77;10.40;;;;;;;;;;5067689;28;20047;-62
2022/11/20 09:25:11;;;;;;;17.53;9.23;;;;;;;;;;5061209;28;20029;-62
2022/11/20 09:27:55;;;;;;;20.93;10.80;;;;;;;;;;5073417;28;20083;-63
2022/11/20 09:30:39;;;;;;;18.93;9.27;;;;;;;;;;5062287;28;20035;-63
2022/11/20 09:33:23;;;;;;;18.87;9.50;;;;;;;;;;5059737;28;20035;-62
2022/11/20 09:36:06;;;;;;;16.77;9.40;;;;;;;;;;5066439;28;20035;-63
2022/11/20 09:38:50;;;;;;;19.17;9.83;;;;;;;;;;5071964;28;20025;-62
2022/11/20 09:41:34;;;;;;;16.13;8.27;;;;;;;;;;5066443;28;20104;-62
2022/11/20 09:44:18;;;;;;;18.53;10.40;;;;;;;;;;5073526;28;20024;-62
2022/11/20 09:47:02;;;;;;;16.03;9.20;;;;;;;;;;5058815;28;20036;-63
2022/11/20 09:49:45;;;;;;;20.57;10.07;;;;;;;;;;5068932;28;20377;-62
2022/11/20 09:52:29;;;;;;;16.53;9.23;;;;;;;;;;5068632;28;20032;-63
2022/11/20 09:55:13;;;;;;;16.43;9.03;;;;;;;;;;5067093;28;20679;-62
2022/11/20 09:57:56;;;;;;;16.77;9.63;;;;;;;;;;5070361;28;20109;-62
2022/11/20 10:00:40;;;;;;;17.63;10.00;;;;;;;;;;5063400;28;20032;-62
2022/11/20 10:03:24;;;;;;;19.30;10.17;;;;;;;;;;5070795;28;20115;-63
2022/11/20 10:06:08;;;;;;;17.93;10.17;;;;;;;;;;5072666;28;20028;-62
2022/11/20 10:08:51;;;;;;;16.10;8.43;;;;;;;;;;5056271;28;20193;-62
2022/11/20 10:11:35;;;;;;;16.10;9.13;;;;;;;;;;5060206;28;20032;-63
2022/11/20 10:14:19;;;;;;;19.33;10.23;;;;;;;;;;5067568;28;20027;-63
2022/11/20 10:17:03;;;;;;;18.57;9.93;;;;;;;;;;5067287;28;20016;-62
2022/11/20 10:19:47;;;;;;;18.17;10.13;;;;;;;;;;5064830;28;20025;-62
2022/11/20 10:22:31;;;;;;;16.87;9.53;;;;;;;;;;5064562;28;20472;-63
2022/11/20 10:25:15;;;;;;;16.67;9.37;;;;;;;;;;5060562;28;20071;-62
2022/11/20 10:27:59;;;;;;;16.60;9.07;;;;;;;;;;5061769;28;21828;-62
2022/11/20 10:30:43;;;;;;;15.70;8.87;;;;;;;;;;5070248;28;20032;-62
2022/11/20 10:33:27;;;;;;;19.13;9.30;;;;;;;;;;5059094;28;20026;-62
2022/11/20 10:36:10;;;;;;;17.67;9.40;;;;;;;;;;5075426;28;20107;-62
2022/11/20 10:38:54;;;;;;;18.33;9.60;;;;;;;;;;5071496;28;20028;-63
2022/11/20 10:41:38;;;;;;;14.67;8.40;;;;;;;;;;5065826;28;20032;-62
2022/11/20 10:47:25;;;;;;;15.83;9.27;;;;;;;;;;5061976;28;20027;-62
2022/11/20 10:50:09;;;;;;;14.73;8.13;;;;;;;;;;5062697;28;20028;-62
2022/11/20 10:52:52;;;;;;;15.43;7.17;;;;;;;;;;5079904;28;20020;-62
2022/11/20 10:55:36;;;;;;;20.03;8.87;;;;;;;;;;5065209;28;20028;-62
2022/11/20 10:58:20;;;;;;;16.23;8.43;;;;;;;;;;5080318;28;20833;-62
2022/11/20 11:01:04;;;;;;;15.67;8.90;;;;;;;;;;5073486;28;20501;-62
2022/11/20 11:03:48;;;;;;;17.33;8.93;;;;;;;;;;5066764;28;20032;-62
2022/11/20 11:06:31;;;;;;;15.70;8.40;;;;;;;;;;5069160;28;20037;-64
2022/11/20 11:09:15;;;;;;;12.60;7.20;;;;;;;;;;5073131;28;20315;-62
2022/11/20 11:11:59;;;;;;;15.13;9.30;;;;;;;;;;5077915;28;20036;-62
2022/11/20 11:14:43;;;;;;;16.10;8.80;;;;;;;;;;5063409;28;20103;-62
2022/11/20 11:17:27;;;;;;;15.13;8.33;;;;;;;;;;5064892;28;20498;-62
2022/11/20 11:20:10;;;;;;;15.43;8.40;;;;;;;;;;5067812;28;20030;-62
2022/11/20 11:22:55;;;;;;;14.37;7.83;;;;;;;;;;5071624;28;20037;-62
2022/11/20 11:25:39;;;;;;;15.60;8.27;;;;;;;;;;5064269;28;20031;-62
2022/11/20 11:28:25;;;;;;;17.40;8.93;;;;;;;;;;5065285;28;20444;-62
2022/11/20 11:31:09;;;;;;;17.07;8.97;;;;;;;;;;5068727;28;20031;-62
2022/11/20 11:33:53;;;;;;;13.70;7.70;;;;;;;;;;5081113;28;20759;-62
2022/11/20 11:36:37;;;;;;;15.43;8.83;;;;;;;;;;5074261;28;20028;-62
2022/11/20 11:39:21;;;;;;;18.77;9.63;;;;;;;;;;5072328;28;20174;-62
2022/11/20 11:42:04;;;;;;;15.97;9.10;;;;;;;;;;5079478;28;20815;-61
2022/11/20 11:45:07;;;;;;;18.40;9.07;;;;;;;;;;5067934;28;20058;-62
2022/11/20 11:47:32;;;;;;;;;;;;;;;;;;5069552;28;20039;-62
2022/11/20 11:50:16;;;;;;;15.47;8.37;;;;;;;;;;5075039;28;20434;-62
2022/11/20 11:53:00;;;;;;;13.43;7.80;;;;;;;;;;5079156;28;20071;-62
2022/11/20 11:55:44;;;;;;;16.50;9.17;;;;;;;;;;5069586;28;20060;-62
2022/11/20 11:58:27;;;;;;;14.23;8.23;;;;;;;;;;5082062;28;20753;-63
2022/11/20 12:01:11;;;;;;;14.77;8.20;;;;;;;;;;5066682;28;20029;-62
2022/11/20 12:03:55;;;;;;;13.07;7.70;;;;;;;;;;5069183;28;20445;-62
2022/11/20 12:06:39;;;;;;;14.20;7.67;;;;;;;;;;5072676;28;20562;-62
2022/11/20 12:09:23;;;;;;;14.30;8.23;;;;;;;;;;5066794;28;20036;-62
2022/11/20 12:12:06;;;;;;;14.60;8.47;;;;;;;;;;5066344;28;20462;-62
2022/11/20 12:14:52;;;;;;;14.30;7.90;;;;;;;;;;5071362;28;20024;-63
2022/11/20 12:17:36;;;;;;;12.77;7.50;;;;;;;;;;5069999;28;22112;-62
2022/11/20 12:20:20;;;;;;;13.90;7.97;;;;;;;;;;5069012;28;20560;-62
2022/11/20 12:23:04;;;;;;;15.40;7.77;;;;;;;;;;5052090;28;20067;-63
2022/11/20 12:25:48;;;;;;;12.10;7.43;;;;;;;;;;5067844;28;20033;-62
2022/11/20 12:28:33;;;;;;;14.53;7.63;;;;;;;;;;5073791;28;20021;-62
2022/11/20 12:31:17;;;;;;;14.80;8.07;;;;;;;;;;5068181;28;20035;-62
2022/11/20 12:34:01;;;;;;;13.97;7.70;;;;;;;;;;5067285;28;20032;-62
2022/11/20 12:36:44;;;;;;;14.80;7.87;;;;;;;;;;5075416;28;20057;-62
2022/11/20 12:39:28;;;;;;;13.97;7.77;;;;;;;;;;5065165;28;20549;-62
2022/11/20 12:45:15;;;;;;;13.90;7.37;;;;;;;;;;5066908;28;20042;-63
2022/11/20 12:47:59;;;;;;;14.13;8.53;;;;;;;;;;5073623;28;20099;-62
2022/11/20 12:50:43;;;;;;;13.63;8.43;;;;;;;;;;5078424;28;20024;-62
2022/11/20 12:53:27;;;;;;;13.80;8.03;;;;;;;;;;5063062;28;20064;-62
2022/11/20 12:56:12;;;;;;;15.43;8.43;;;;;;;;;;5079470;28;20032;-62
2022/11/20 12:58:55;;;;;;;13.13;7.53;;;;;;;;;;5082772;28;20016;-62
2022/11/20 13:01:39;;;;;;;13.53;7.97;;;;;;;;;;5073523;28;20090;-62
2022/11/20 13:04:23;;;;;;;14.10;7.90;;;;;;;;;;5063489;28;20027;-62
2022/11/20 13:07:07;;;;;;;15.37;7.77;;;;;;;;;;5073315;28;20029;-63
2022/11/20 13:09:51;;;;;;;15.00;8.73;;;;;;;;;;5066381;28;20066;-62
2022/11/20 13:12:35;;;;;;;16.10;8.43;;;;;;;;;;5068594;28;20040;-62
2022/11/20 13:15:19;;;;;;;13.87;8.47;;;;;;;;;;5070146;28;20028;-62
2022/11/20 13:18:02;;;;;;;14.93;8.43;;;;;;;;;;5069083;28;20387;-63
2022/11/20 13:20:47;;;;;;;13.07;7.37;;;;;;;;;;5063057;28;20461;-63
2022/11/20 13:23:32;;;;;;;14.17;7.00;;;;;;;;;;5065603;28;20028;-62
2022/11/20 13:26:15;;;;;;;13.07;7.00;;;;;;;;;;5071838;28;20024;-63
2022/11/20 13:28:59;;;;;;;12.37;6.67;;;;;;;;;;5064366;28;20116;-62
2022/11/20 13:31:43;;;;;;;14.70;7.53;;;;;;;;;;5069249;28;20035;-63
2022/11/20 13:34:27;;;;;;;16.93;8.73;;;;;;;;;;5056296;28;20038;-63
2022/11/20 13:37:12;;;;;;;13.47;8.40;;;;;;;;;;5069057;28;20020;-62
2022/11/20 13:39:56;;;;;;;14.23;8.60;;;;;;;;;;5072629;28;20024;-62
2022/11/20 13:42:40;;;;;;;17.37;8.50;;;;;;;;;;5072594;28;20028;-62
2022/11/20 13:45:24;;;;;;;16.83;9.00;;;;;;;;;;5069454;28;20028;-62
2022/11/20 13:48:07;;;;;;;15.50;8.40;;;;;;;;;;5066611;28;20038;-62
2022/11/20 13:50:52;;;;;;;16.03;9.03;;;;;;;;;;5070164;28;20392;-62
2022/11/20 13:53:36;;;;;;;16.10;8.17;;;;;;;;;;5068580;28;20031;-63
2022/11/20 13:56:20;;;;;;;17.47;9.07;;;;;;;;;;5072926;28;20497;-63
2022/11/20 13:59:03;;;;;;;15.93;8.80;;;;;;;;;;5071529;28;21992;-62
2022/11/20 14:01:47;;;;;;;17.43;9.13;;;;;;;;;;5076208;28;20020;-63
2022/11/20 14:04:31;;;;;;;16.10;8.57;;;;;;;;;;5070256;28;20024;-62
2022/11/20 14:07:15;;;;;;;18.00;9.03;;;;;;;;;;5080819;28;20032;-62
2022/11/20 14:09:59;;;;;;;16.33;8.83;;;;;;;;;;5071172;28;20024;-62
2022/11/20 14:12:43;;;;;;;14.93;8.67;;;;;;;;;;5068027;28;20039;-62
2022/11/20 14:15:27;;;;;;;15.87;9.43;;;;;;;;;;5067938;28;20743;-62
2022/11/20 14:18:10;;;;;;;16.17;8.67;;;;;;;;;;5063182;28;20387;-62
2022/11/20 14:20:54;;;;;;;17.93;8.67;;;;;;;;;;5065089;28;20065;-62
2022/11/20 14:23:38;;;;;;;16.33;8.47;;;;;;;;;;5065061;28;20483;-62
2022/11/20 14:26:22;;;;;;;14.97;8.33;;;;;;;;;;5067544;28;20031;-62
2022/11/20 14:29:06;;;;;;;17.57;9.20;;;;;;;;;;5071070;28;20056;-63
2022/11/20 14:31:50;;;;;;;16.90;8.60;;;;;;;;;;5064748;28;20065;-64
2022/11/20 14:34:34;;;;;;;17.73;8.63;;;;;;;;;;5082023;28;20032;-63
2022/11/20 14:37:17;;;;;;;18.63;9.23;;;;;;;;;;5051582;28;20369;-62
2022/11/20 14:40:01;;;;;;;16.60;9.43;;;;;;;;;;5063073;28;20035;-62
2022/11/20 14:42:45;;;;;;;18.00;9.70;;;;;;;;;;5064305;28;20476;-63
2022/11/20 14:45:29;;;;;;;18.60;9.27;;;;;;;;;;5080342;28;20028;-62
2022/11/20 14:48:13;;;;;;;17.80;9.73;;;;;;;;;;5064008;28;20024;-63
2022/11/20 14:50:39;;;;;;;16.40;9.33;;;;;;;;;;5074695;28;20122;-62
2022/11/20 14:53:04;;;;;;;18.27;9.70;;;;;;;;;;5064570;28;20028;-62
2022/11/20 14:55:34;;;;;;;18.60;8.73;;;;;;;;;;5067718;28;20051;-62
2022/11/20 14:58:01;;;;;;;16.27;8.90;;;;;;;;;;5065952;28;20423;-62
2022/11/20 15:00:27;;;;;;;19.50;9.60;;;;;;;;;;5070396;28;20024;-62
2022/11/20 15:02:52;;;;;;;17.50;8.93;;;;;;;;;;5070587;28;20028;-62
2022/11/20 15:05:19;;;;;;;16.53;9.03;;;;;;;;;;5083920;28;20487;-63
2022/11/20 15:07:46;;;;;;;18.20;9.73;;;;;;;;;;5062976;28;20446;-63
2022/11/20 15:10:15;;;;;;;19.17;9.43;;;;;;;;;;5077421;28;20510;-62
2022/11/20 15:12:46;;;;;;;19.50;9.17;;;;;;;;;;5071883;28;20480;-62
2022/11/20 15:15:12;;;;;;;24.00;10.05;;;;;;;;;;5073383;28;20028;-62
2022/11/20 15:17:39;;;;;;;19.30;10.00;;;;;;;;;;5070611;28;20032;-62
2022/11/20 15:20:09;;;;;;;20.87;10.53;;;;;;;;;;5070508;28;20032;-62
2022/11/20 15:22:34;;;;;;;19.63;10.47;;;;;;;;;;5062186;28;20086;-63
2022/11/20 15:25:00;;;;;;;20.13;10.33;;;;;;;;;;5075310;28;20504;-62
2022/11/20 15:27:25;;;;;;;18.30;9.10;;;;;;;;;;5068551;28;20070;-62
2022/11/20 15:29:50;;;;;;;19.53;10.00;;;;;;;;;;5067740;28;20036;-63
2022/11/20 15:32:16;;;;;;;19.47;10.30;;;;;;;;;;5064403;28;20149;-62
2022/11/20 15:34:41;;;;;;;19.00;10.57;;;;;;;;;;5068861;28;20040;-62
2022/11/20 15:37:06;;;;;;;20.63;10.83;;;;;;;;;;5072456;28;20099;-62
2022/11/20 15:39:32;;;;;;;22.13;11.43;;;;;;;;;;5066837;28;20499;-62
2022/11/20 15:41:57;;;;;;;23.00;12.07;;;;;;;;;;5073260;28;20035;-62
2022/11/20 15:44:22;;;;;;;27.83;13.30;;;;;;;;;;5083972;28;20043;-62
2022/11/20 15:46:47;;;;;;;26.30;12.87;;;;;;;;;;5075361;28;20029;-62
2022/11/20 15:49:14;;;;;;;25.67;13.00;;;;;;;;;;5077736;28;20031;-62
2022/11/20 15:51:41;;;;;;;26.20;13.70;;;;;;;;;;5069880;28;20032;-62
2022/11/20 15:54:11;;;;;;;24.43;12.27;;;;;;;;;;5064323;28;20468;-62
2022/11/20 15:56:37;;;;;;;23.80;12.00;;;;;;;;;;5072841;28;20112;-62
2022/11/20 15:59:02;;;;;;;25.60;12.03;;;;;;;;;;5080472;28;20032;-62
2022/11/20 16:01:27;;;;;;;28.80;13.73;;;;;;;;;;5074634;28;20024;-63
2022/11/20 16:03:52;;;;;;;28.27;13.77;;;;;;;;;;5066073;28;20039;-62